createdAt,value
2022-08-22T00:02:55.136Z,89.42
2022-08-22T00:03:08.205Z,89.48
2022-08-22T00:06:27.006Z,89.02
2022-08-22T00:09:33.389Z,89.18
2022-08-22T00:13:12.770Z,88.89
2022-08-22T00:16:33.458Z,88.85
2022-08-22T00:19:58.179Z,89.36
2022-08-22T00:23:11.692Z,89.12
2022-08-22T00:26:22.273Z,88.17
2022-08-22T00:29:43.558Z,88.30
2022-08-22T00:33:03.062Z,88.07
2022-08-22T00:36:16.606Z,88.17
2022-08-22T00:39:24.616Z,88.50
2022-08-22T00:42:40.550Z,88.63
2022-08-22T00:45:58.507Z,88.40
2022-08-22T00:49:30.399Z,88.87
2022-08-22T00:52:48.248Z,89.63
2022-08-22T00:55:52.143Z,89.42
2022-08-22T00:59:22.910Z,89.67
2022-08-22T01:02:28.870Z,89.23
2022-08-22T01:05:53.091Z,88.84
2022-08-22T01:09:33.333Z,89.42
2022-08-22T01:12:53.509Z,89.19
2022-08-22T01:16:29.317Z,89.49
2022-08-22T01:19:41.266Z,89.45
2022-08-22T01:22:58.783Z,89.69
2022-08-22T01:26:39.655Z,89.78
2022-08-22T01:30:12.131Z,89.39
2022-08-22T01:33:37.706Z,89.32
2022-08-22T01:36:48.943Z,89.57
2022-08-22T01:40:10.462Z,90.42
2022-08-22T01:43:59.913Z,90.28
2022-08-22T01:47:13.993Z,90.80
2022-08-22T01:50:29.236Z,91.19
2022-08-22T01:53:50.799Z,90.91
2022-08-22T01:57:02.466Z,91.24
2022-08-22T02:00:18.387Z,91.04
2022-08-22T02:03:25.051Z,90.85
2022-08-22T02:07:11.082Z,91.05
2022-08-22T02:10:52.072Z,91.33
2022-08-22T02:14:03.483Z,91.32
2022-08-22T02:17:31.640Z,91.40
2022-08-22T02:20:56.756Z,91.79
2022-08-22T02:24:19.447Z,91.72
2022-08-22T02:27:45.091Z,91.51
2022-08-22T02:30:55.198Z,91.89
2022-08-22T02:34:01.413Z,92.11
2022-08-22T02:37:25.704Z,91.96
2022-08-22T02:40:37.694Z,92.39
2022-08-22T02:43:43.837Z,91.90
2022-08-22T02:47:09.182Z,91.42
2022-08-22T02:50:25.739Z,90.91
2022-08-22T02:53:32.656Z,91.24
2022-08-22T02:56:43.330Z,91.75
2022-08-22T03:00:31.869Z,91.47
2022-08-22T03:03:41.177Z,91.63
2022-08-22T03:07:07.535Z,91.53
2022-08-22T03:10:13.517Z,91.63
2022-08-22T03:13:45.869Z,91.21
2022-08-22T03:17:01.025Z,91.41
2022-08-22T03:20:07.662Z,91.15
2022-08-22T03:23:19.333Z,91.01
2022-08-22T03:26:31.986Z,90.59
2022-08-22T03:29:46.831Z,90.70
2022-08-22T03:33:27.927Z,91.30
2022-08-22T03:36:31.688Z,91.33
2022-08-22T03:40:20.334Z,91.30
2022-08-22T03:43:59.415Z,91.33
2022-08-22T03:47:08.179Z,91.12
2022-08-22T03:50:48.262Z,90.98
2022-08-22T03:54:08.720Z,90.73
2022-08-22T03:57:54.686Z,90.94
2022-08-22T04:01:07.959Z,90.57
2022-08-22T04:04:10.820Z,90.99
2022-08-22T04:07:36.288Z,91.05
2022-08-22T04:10:58.626Z,90.44
2022-08-22T04:14:26.066Z,90.57
2022-08-22T04:17:50.874Z,90.62
2022-08-22T04:21:22.816Z,90.77
2022-08-22T04:24:36.630Z,90.67
2022-08-22T04:27:48.455Z,90.82
2022-08-22T04:31:00.986Z,91.27
2022-08-22T04:34:12.910Z,91.49
2022-08-22T04:37:44.048Z,91.41
2022-08-22T04:41:03.944Z,91.83
2022-08-22T04:44:14.222Z,92.29
2022-08-22T04:47:31.692Z,91.85
2022-08-22T04:51:01.188Z,91.94
2022-08-22T04:54:31.872Z,92.09
2022-08-22T04:58:26.404Z,92.34
2022-08-22T05:01:56.126Z,91.91
2022-08-22T05:05:19.844Z,92.79
2022-08-22T05:08:27.439Z,92.58
2022-08-22T05:11:34.132Z,92.67
2022-08-22T05:15:02.489Z,92.90
2022-08-22T05:18:17.364Z,92.52
2022-08-22T05:21:27.148Z,92.47
2022-08-22T05:24:38.888Z,92.69
2022-08-22T05:28:02.599Z,92.87
2022-08-22T05:31:12.424Z,92.70
2022-08-22T05:34:21.856Z,92.72
2022-08-22T05:37:31.180Z,92.58
2022-08-22T05:40:37.914Z,92.41
2022-08-22T05:43:44.243Z,92.19
2022-08-22T05:47:15.679Z,92.19
2022-08-22T05:50:28.546Z,92.20
2022-08-22T05:53:45.759Z,92.16
2022-08-22T05:56:55.994Z,92.21
2022-08-22T06:00:11.843Z,92.60
2022-08-22T06:03:30.201Z,92.20
2022-08-22T06:06:40.950Z,92.27
2022-08-22T06:10:09.574Z,92.07
2022-08-22T06:13:35.899Z,92.20
2022-08-22T06:16:47.638Z,91.88
2022-08-22T06:19:53.664Z,91.76
2022-08-22T06:23:01.017Z,91.73
2022-08-22T06:26:05.543Z,91.45
2022-08-22T06:29:37.949Z,91.74
2022-08-22T06:33:00.162Z,91.80
2022-08-22T06:36:32.744Z,91.45
2022-08-22T06:39:39.351Z,91.35
2022-08-22T06:42:47.561Z,91.18
2022-08-22T06:45:53.108Z,91.22
2022-08-22T06:48:57.991Z,91.73
2022-08-22T06:52:11.901Z,91.08
2022-08-22T06:55:15.597Z,90.92
2022-08-22T06:58:33.974Z,91.07
2022-08-22T07:01:48.676Z,90.83
2022-08-22T07:04:51.830Z,91.06
2022-08-22T07:07:57.737Z,90.70
2022-08-22T07:11:26.104Z,90.39
2022-08-22T07:14:34.530Z,89.93
2022-08-22T07:17:46.757Z,89.92
2022-08-22T07:20:57.284Z,89.38
2022-08-22T07:24:02.501Z,89.78
2022-08-22T07:27:37.597Z,89.73
2022-08-22T07:30:52.938Z,89.85
2022-08-22T07:34:19.406Z,89.87
2022-08-22T07:37:43.827Z,89.94
2022-08-22T07:41:01.880Z,89.79
2022-08-22T07:44:19.437Z,89.84
2022-08-22T07:47:27.463Z,89.35
2022-08-22T07:51:05.941Z,89.58
2022-08-22T07:54:13.542Z,90.00
2022-08-22T07:57:23.831Z,89.27
2022-08-22T08:00:29.946Z,89.71
2022-08-22T08:03:33.165Z,88.52
2022-08-22T08:06:36.966Z,87.82
2022-08-22T08:09:46.052Z,87.62
2022-08-22T08:13:01.822Z,88.05
2022-08-22T08:16:09.743Z,87.50
2022-08-22T08:19:14.830Z,87.59
2022-08-22T08:22:23.804Z,88.34
2022-08-22T08:25:31.180Z,88.03
2022-08-22T08:28:41.358Z,87.36
2022-08-22T08:31:44.983Z,86.70
2022-08-22T08:34:48.480Z,85.96
2022-08-22T08:37:59.371Z,86.15
2022-08-22T08:41:27.298Z,84.97
2022-08-22T08:45:16.089Z,85.55
2022-08-22T08:48:43.297Z,85.23
2022-08-22T08:52:00.907Z,84.47
2022-08-22T08:55:21.807Z,83.63
2022-08-22T08:58:39.810Z,83.61
2022-08-22T09:02:09.209Z,83.56
2022-08-22T09:05:35.125Z,82.66
2022-08-22T09:08:47.738Z,82.19
2022-08-22T09:12:11.263Z,82.47
2022-08-22T09:15:21.519Z,82.96
2022-08-22T09:18:45.045Z,82.86
2022-08-22T09:22:14.260Z,81.23
2022-08-22T09:25:38.414Z,81.99
2022-08-22T09:28:56.986Z,82.82
2022-08-22T09:32:19.154Z,83.02
2022-08-22T09:35:34.454Z,82.10
2022-08-22T09:38:57.014Z,80.96
2022-08-22T09:42:12.640Z,79.98
2022-08-22T09:45:33.816Z,80.03
2022-08-22T09:49:01.150Z,80.20
2022-08-22T09:52:36.920Z,79.24
2022-08-22T09:55:53.200Z,78.60
2022-08-22T09:59:09.802Z,78.83
2022-08-22T10:02:27.913Z,78.48
2022-08-22T10:06:00.588Z,77.80
2022-08-22T10:09:31.296Z,75.85
2022-08-22T10:12:49.926Z,76.38
2022-08-22T10:16:26.720Z,75.26
2022-08-22T10:19:41.815Z,75.33
2022-08-22T10:23:21.601Z,75.30
2022-08-22T10:26:36.508Z,75.17
2022-08-22T10:30:33.723Z,75.50
2022-08-22T10:33:52.256Z,75.49
2022-08-22T10:37:23.556Z,76.08
2022-08-22T10:40:34.512Z,76.55
2022-08-22T10:44:00.867Z,76.74
2022-08-22T10:47:15.852Z,77.49
2022-08-22T10:50:31.214Z,78.57
2022-08-22T10:53:56.015Z,78.00
2022-08-22T10:57:24.364Z,78.60
2022-08-22T11:00:27.242Z,78.48
2022-08-22T11:04:07.709Z,77.99
2022-08-22T11:07:44.605Z,78.92
2022-08-22T11:10:52.122Z,78.44
2022-08-22T11:14:03.168Z,79.30
2022-08-22T11:17:40.686Z,80.38
2022-08-22T11:21:11.260Z,81.71
2022-08-22T11:24:35.564Z,82.98
2022-08-22T11:28:12.739Z,82.70
2022-08-22T11:31:51.571Z,82.03
2022-08-22T11:35:09.048Z,82.31
2022-08-22T11:38:28.038Z,82.97
2022-08-22T11:42:04.251Z,83.25
2022-08-22T11:45:08.511Z,82.54
2022-08-22T11:48:23.969Z,82.37
2022-08-22T11:51:58.091Z,81.85
2022-08-22T11:55:17.115Z,82.57
2022-08-22T11:58:29.259Z,83.05
2022-08-22T12:02:05.808Z,84.44
2022-08-22T12:05:24.321Z,83.32
2022-08-22T12:08:35.520Z,84.61
2022-08-22T12:12:01.532Z,84.64
2022-08-22T12:15:12.034Z,85.92
2022-08-22T12:18:26.938Z,86.21
2022-08-22T12:22:07.378Z,86.01
2022-08-22T12:25:32.020Z,86.18
2022-08-22T12:29:00.566Z,85.70
2022-08-22T12:32:33.969Z,86.06
2022-08-22T12:35:54.838Z,86.59
2022-08-22T12:39:24.665Z,86.75
2022-08-22T12:42:49.175Z,85.74
2022-08-22T12:46:17.400Z,85.42
2022-08-22T12:49:27.341Z,85.94
2022-08-22T12:52:51.904Z,85.99
2022-08-22T12:56:12.474Z,85.45
2022-08-22T12:59:27.878Z,85.19
2022-08-22T13:02:36.163Z,85.56
2022-08-22T13:05:46.048Z,84.74
2022-08-22T13:08:56.036Z,84.52
2022-08-22T13:12:25.406Z,84.23
2022-08-22T13:15:45.883Z,84.76
2022-08-22T13:19:07.796Z,84.81
2022-08-22T13:22:17.236Z,85.64
2022-08-22T13:25:25.495Z,85.59
2022-08-22T13:28:36.206Z,85.46
2022-08-22T13:31:42.396Z,85.29
2022-08-22T13:34:52.191Z,85.58
2022-08-22T13:38:12.190Z,85.77
2022-08-22T13:41:31.505Z,86.77
2022-08-22T13:44:45.299Z,87.52
2022-08-22T13:47:57.788Z,87.91
2022-08-22T13:51:09.986Z,88.92
2022-08-22T13:54:15.389Z,89.02
2022-08-22T13:57:24.632Z,88.59
2022-08-22T14:01:14.094Z,89.99
2022-08-22T14:04:36.422Z,89.39
2022-08-22T14:08:02.995Z,90.15
2022-08-22T14:11:25.423Z,90.72
2022-08-22T14:14:33.586Z,91.46
2022-08-22T14:17:48.885Z,91.47
2022-08-22T14:20:52.342Z,91.52
2022-08-22T14:24:12.262Z,91.79
2022-08-22T14:27:27.082Z,92.15
2022-08-22T14:30:54.638Z,92.74
2022-08-22T14:34:10.765Z,92.47
2022-08-22T14:37:29.119Z,92.23
2022-08-22T14:40:36.680Z,92.54
2022-08-22T14:43:59.779Z,92.30
2022-08-22T14:47:15.852Z,92.53
2022-08-22T14:50:55.959Z,92.73
2022-08-22T14:54:21.064Z,92.97
2022-08-22T14:57:26.034Z,93.26
2022-08-22T15:00:41.864Z,93.17
2022-08-22T15:04:10.277Z,93.43
2022-08-22T15:07:23.977Z,93.47
2022-08-22T15:10:33.373Z,93.35
2022-08-22T15:13:41.057Z,93.06
2022-08-22T15:16:53.726Z,92.96
2022-08-22T15:20:11.208Z,92.68
2022-08-22T15:23:23.537Z,93.14
2022-08-22T15:26:32.998Z,93.23
2022-08-22T15:29:53.036Z,92.91
2022-08-22T15:33:27.866Z,93.24
2022-08-22T15:36:32.748Z,93.04
2022-08-22T15:39:38.317Z,93.24
2022-08-22T15:42:50.265Z,93.19
2022-08-22T15:46:18.279Z,92.97
2022-08-22T15:49:21.430Z,93.24
2022-08-22T15:52:59.160Z,93.45
2022-08-22T15:56:26.105Z,93.33
2022-08-22T15:59:56.751Z,93.53
2022-08-22T16:03:37.168Z,93.31
2022-08-22T16:06:56.085Z,93.35
2022-08-22T16:10:00.456Z,93.56
2022-08-22T16:13:09.383Z,93.78
2022-08-22T16:16:26.546Z,93.39
2022-08-22T16:19:32.454Z,93.54
2022-08-22T16:22:59.059Z,93.80
2022-08-22T16:26:03.045Z,93.75
2022-08-22T16:29:17.982Z,93.84
2022-08-22T16:32:28.205Z,93.92
2022-08-22T16:36:08.150Z,93.91
2022-08-22T16:39:22.596Z,93.84
2022-08-22T16:42:37.976Z,93.88
2022-08-22T16:45:45.598Z,94.25
2022-08-22T16:48:49.858Z,93.96
2022-08-22T16:52:23.689Z,94.01
2022-08-22T16:55:36.136Z,94.01
2022-08-22T16:59:01.015Z,93.76
2022-08-22T17:02:29.718Z,94.34
2022-08-22T17:05:47.758Z,94.18
2022-08-22T17:09:09.575Z,94.69
2022-08-22T17:12:39.903Z,94.37
2022-08-22T17:16:18.566Z,93.93
2022-08-22T17:19:39.780Z,94.06
2022-08-22T17:22:51.573Z,93.66
2022-08-22T17:26:07.122Z,93.97
2022-08-22T17:29:35.794Z,93.57
2022-08-22T17:33:00.217Z,94.13
2022-08-22T17:36:30.842Z,94.87
2022-08-22T17:40:15.770Z,94.98
2022-08-22T17:43:49.311Z,95.26
2022-08-22T17:46:57.907Z,95.19
2022-08-22T17:50:10.992Z,94.94
2022-08-22T17:53:32.468Z,94.44
2022-08-22T17:57:00.296Z,94.59
2022-08-22T18:00:18.203Z,94.60
2022-08-22T18:03:24.244Z,94.63
2022-08-22T18:06:33.854Z,94.34
2022-08-22T18:09:47.003Z,94.26
2022-08-22T18:13:02.324Z,93.95
2022-08-22T18:16:20.065Z,93.62
2022-08-22T18:19:44.691Z,93.59
2022-08-22T18:22:56.154Z,92.86
2022-08-22T18:26:14.011Z,92.85
2022-08-22T18:29:25.567Z,93.02
2022-08-22T18:32:36.159Z,93.13
2022-08-22T18:35:44.898Z,93.46
2022-08-22T18:39:17.071Z,93.53
2022-08-22T18:42:52.870Z,93.37
2022-08-22T18:46:03.258Z,93.48
2022-08-22T18:49:15.905Z,92.86
2022-08-22T18:52:32.152Z,92.81
2022-08-22T18:55:48.180Z,92.71
2022-08-22T18:59:05.311Z,91.96
2022-08-22T19:02:22.588Z,91.91
2022-08-22T19:06:06.408Z,91.67
2022-08-22T19:09:24.616Z,91.08
2022-08-22T19:12:49.551Z,91.44
2022-08-22T19:16:16.288Z,91.40
2022-08-22T19:19:57.685Z,91.63
2022-08-22T19:23:41.007Z,91.31
2022-08-22T19:26:48.542Z,91.59
2022-08-22T19:29:55.772Z,91.59
2022-08-22T19:33:05.284Z,91.23
2022-08-22T19:36:10.665Z,91.37
2022-08-22T19:39:41.455Z,91.71
2022-08-22T19:42:50.269Z,91.54
2022-08-22T19:45:53.729Z,91.55
2022-08-22T19:48:59.783Z,90.98
2022-08-22T19:52:23.707Z,91.00
2022-08-22T19:55:37.242Z,91.17
2022-08-22T19:59:27.185Z,91.46
2022-08-22T20:02:49.873Z,90.76
2022-08-22T20:06:43.644Z,91.05
2022-08-22T20:10:11.173Z,91.05
2022-08-22T20:13:30.653Z,90.99
2022-08-22T20:17:08.636Z,91.45
2022-08-22T20:20:28.004Z,90.65
2022-08-22T20:23:37.484Z,90.71
2022-08-22T20:26:57.570Z,90.43
2022-08-22T20:30:11.300Z,90.53
2022-08-22T20:33:27.427Z,90.06
2022-08-22T20:36:31.013Z,90.03
2022-08-22T20:40:05.609Z,90.22
2022-08-22T20:43:21.160Z,90.52
2022-08-22T20:46:46.116Z,90.05
2022-08-22T20:49:53.401Z,89.60
2022-08-22T20:53:12.414Z,88.86
2022-08-22T20:56:15.591Z,89.61
2022-08-22T20:59:27.705Z,89.96
2022-08-22T21:03:07.736Z,89.27
2022-08-22T21:06:15.210Z,89.93
2022-08-22T21:09:38.968Z,89.42
2022-08-22T21:12:42.252Z,89.24
2022-08-22T21:15:49.253Z,89.60
2022-08-22T21:18:54.512Z,89.84
2022-08-22T21:22:14.416Z,89.61
2022-08-22T21:25:17.596Z,90.04
2022-08-22T21:28:37.156Z,89.95
2022-08-22T21:32:04.401Z,89.75
2022-08-22T21:35:24.272Z,89.83
2022-08-22T21:38:28.148Z,90.20
2022-08-22T21:41:47.874Z,89.91
2022-08-22T21:45:03.980Z,89.82
2022-08-22T21:48:33.340Z,89.48
2022-08-22T21:51:42.042Z,89.36
2022-08-22T21:54:44.963Z,89.41
2022-08-22T21:58:35.705Z,89.94
2022-08-22T22:01:42.591Z,90.14
2022-08-22T22:04:45.815Z,90.08
2022-08-22T22:07:51.046Z,89.70
2022-08-22T22:10:58.955Z,89.66
2022-08-22T22:14:02.097Z,89.79
2022-08-22T22:17:05.145Z,90.08
2022-08-22T22:20:09.287Z,90.03
2022-08-22T22:23:12.489Z,89.59
2022-08-22T22:26:15.404Z,89.67
2022-08-22T22:29:18.516Z,89.45
2022-08-22T22:32:21.448Z,89.21
2022-08-22T22:35:24.776Z,89.81
2022-08-22T22:38:27.458Z,90.37
2022-08-22T22:41:30.379Z,90.49
2022-08-22T22:44:33.715Z,90.73
2022-08-22T22:47:37.092Z,90.17
2022-08-22T22:50:43.400Z,90.63
2022-08-22T22:53:46.810Z,90.37
2022-08-22T22:56:49.693Z,90.80
2022-08-22T22:59:56.575Z,90.86
2022-08-22T23:03:02.047Z,90.71
2022-08-22T23:06:10.572Z,91.09
2022-08-22T23:09:13.192Z,90.92
2022-08-22T23:12:17.497Z,91.31
2022-08-22T23:15:20.285Z,91.21
2022-08-22T23:18:30.343Z,90.97
2022-08-22T23:21:33.368Z,91.77
2022-08-22T23:24:39.132Z,91.19
2022-08-22T23:27:41.992Z,90.96
2022-08-22T23:30:44.928Z,90.78
2022-08-22T23:33:47.939Z,91.11
2022-08-22T23:36:53.833Z,91.33
2022-08-22T23:39:56.699Z,91.34
2022-08-22T23:42:59.822Z,91.50
2022-08-22T23:46:02.817Z,91.72
2022-08-22T23:49:06.669Z,91.45
2022-08-22T23:52:11.557Z,91.15
2022-08-22T23:55:14.578Z,90.92
2022-08-22T23:58:18.429Z,91.02
